createdAt,value
2018-07-20T00:00:37.228Z,5.40
2018-07-20T00:01:54.625Z,5.07
2018-07-20T00:03:11.804Z,5.03
2018-07-20T00:04:28.612Z,4.03
2018-07-20T00:05:46.121Z,4.70
2018-07-20T00:07:02.660Z,4.37
2018-07-20T00:08:19.766Z,4.73
2018-07-20T00:09:36.713Z,5.00
2018-07-20T00:10:54.189Z,5.60
2018-07-20T00:12:11.240Z,4.80
2018-07-20T00:13:28.117Z,4.90
2018-07-20T00:14:45.037Z,5.03
2018-07-20T00:16:02.086Z,4.77
2018-07-20T00:17:18.689Z,5.17
2018-07-20T00:18:35.748Z,4.93
2018-07-20T00:19:52.533Z,4.03
2018-07-20T00:21:09.577Z,4.90
2018-07-20T00:22:26.596Z,6.13
2018-07-20T00:23:43.453Z,4.80
2018-07-20T00:25:00.527Z,4.30
2018-07-20T00:26:17.334Z,5.20
2018-07-20T00:27:34.226Z,5.77
2018-07-20T00:28:51.586Z,4.40
2018-07-20T00:30:08.300Z,4.50
2018-07-20T00:31:25.246Z,4.80
2018-07-20T00:32:42.132Z,5.27
2018-07-20T00:33:59.224Z,4.80
2018-07-20T00:35:16.530Z,5.03
2018-07-20T00:36:33.069Z,5.30
2018-07-20T00:37:49.951Z,4.47
2018-07-20T00:39:08.841Z,5.00
2018-07-20T00:40:25.981Z,4.80
2018-07-20T00:41:42.877Z,4.20
2018-07-20T00:43:00.063Z,4.90
2018-07-20T00:44:17.040Z,4.40
2018-07-20T00:45:33.543Z,4.50
2018-07-20T00:46:50.829Z,4.50
2018-07-20T00:48:07.332Z,4.80
2018-07-20T00:49:24.250Z,4.93
2018-07-20T00:50:41.101Z,4.57
2018-07-20T00:51:57.972Z,4.13
2018-07-20T00:53:15.201Z,5.27
2018-07-20T00:54:32.300Z,4.70
2018-07-20T00:55:49.272Z,4.40
2018-07-20T00:57:06.052Z,6.20
2018-07-20T00:58:22.863Z,4.80
2018-07-20T00:59:39.864Z,4.60
2018-07-20T01:00:57.048Z,4.83
2018-07-20T01:02:14.146Z,5.03
2018-07-20T01:03:31.508Z,4.63
2018-07-20T01:04:48.645Z,5.23
2018-07-20T01:06:06.752Z,6.80
2018-07-20T01:07:23.613Z,5.03
2018-07-20T01:08:40.550Z,4.70
2018-07-20T01:09:58.092Z,4.33
2018-07-20T01:11:14.877Z,5.00
2018-07-20T01:12:31.904Z,3.90
2018-07-20T01:13:48.960Z,5.00
2018-07-20T01:15:06.721Z,4.47
2018-07-20T01:16:23.770Z,3.90
2018-07-20T01:17:40.567Z,4.10
2018-07-20T01:18:58.014Z,4.30
2018-07-20T01:20:15.660Z,4.30
2018-07-20T01:21:33.027Z,4.53
2018-07-20T01:22:50.455Z,4.80
2018-07-20T01:24:07.218Z,3.97
2018-07-20T01:25:24.853Z,4.40
2018-07-20T01:26:41.505Z,4.70
2018-07-20T01:27:58.589Z,4.30
2018-07-20T01:29:15.863Z,4.20
2018-07-20T01:30:33.097Z,4.30
2018-07-20T01:31:50.372Z,3.83
2018-07-20T01:33:07.542Z,4.40
2018-07-20T01:34:24.760Z,3.63
2018-07-20T01:35:41.842Z,5.10
2018-07-20T01:36:58.752Z,4.10
2018-07-20T01:38:16.252Z,4.03
2018-07-20T01:39:33.453Z,5.10
2018-07-20T01:40:50.559Z,4.80
2018-07-20T01:42:08.293Z,3.70
2018-07-20T01:43:25.533Z,4.20
2018-07-20T01:44:42.464Z,4.60
2018-07-20T01:45:59.453Z,4.70
2018-07-20T01:47:16.449Z,4.80
2018-07-20T01:48:33.596Z,4.37
2018-07-20T01:49:50.858Z,4.20
2018-07-20T01:51:08.499Z,4.00
2018-07-20T01:52:25.593Z,4.63
2018-07-20T01:53:42.476Z,4.00
2018-07-20T01:54:59.189Z,4.50
2018-07-20T01:56:16.547Z,4.43
2018-07-20T01:57:33.239Z,4.53
2018-07-20T01:58:50.296Z,4.97
2018-07-20T02:00:07.329Z,4.17
2018-07-20T02:01:24.235Z,4.30
2018-07-20T02:02:41.201Z,4.73
2018-07-20T02:03:58.841Z,4.20
2018-07-20T02:05:15.556Z,3.93
2018-07-20T02:06:32.973Z,4.23
2018-07-20T02:07:50.452Z,4.63
2018-07-20T02:09:09.093Z,4.53
2018-07-20T02:10:26.148Z,4.10
2018-07-20T02:11:42.891Z,4.37
2018-07-20T02:13:00.204Z,5.03
2018-07-20T02:14:17.658Z,5.50
2018-07-20T02:15:34.188Z,3.87
2018-07-20T02:16:51.253Z,4.10
2018-07-20T02:18:08.300Z,4.20
2018-07-20T02:19:25.036Z,4.37
2018-07-20T02:20:42.043Z,5.20
2018-07-20T02:21:58.975Z,4.93
2018-07-20T02:23:15.717Z,4.23
2018-07-20T02:24:32.911Z,4.40
2018-07-20T02:25:49.813Z,5.53
2018-07-20T02:27:06.989Z,4.20
2018-07-20T02:28:23.872Z,4.20
2018-07-20T02:29:40.626Z,4.60
2018-07-20T02:30:57.303Z,4.20
2018-07-20T02:32:14.113Z,4.83
2018-07-20T02:33:30.764Z,3.70
2018-07-20T02:34:47.832Z,4.20
2018-07-20T02:36:04.989Z,4.93
2018-07-20T02:37:21.594Z,4.40
2018-07-20T02:38:38.266Z,4.23
2018-07-20T02:39:55.244Z,4.67
2018-07-20T02:41:11.848Z,4.77
2018-07-20T02:42:28.728Z,5.13
2018-07-20T02:43:45.470Z,4.03
2018-07-20T02:45:02.713Z,4.87
2018-07-20T02:46:19.890Z,4.30
2018-07-20T02:47:37.740Z,4.60
2018-07-20T02:48:54.367Z,4.47
2018-07-20T02:50:11.280Z,4.80
2018-07-20T02:51:28.308Z,4.20
2018-07-20T02:52:45.076Z,4.20
2018-07-20T02:54:01.914Z,4.67
2018-07-20T02:55:18.805Z,4.70
2018-07-20T02:56:35.712Z,4.90
2018-07-20T02:57:52.868Z,5.80
2018-07-20T02:59:10.149Z,4.77
2018-07-20T03:00:27.387Z,4.40
2018-07-20T03:01:44.840Z,5.33
2018-07-20T03:03:01.608Z,4.63
2018-07-20T03:04:18.730Z,5.50
2018-07-20T03:05:35.788Z,4.70
2018-07-20T03:06:52.913Z,5.93
2018-07-20T03:08:10.016Z,5.90
2018-07-20T03:09:26.661Z,5.00
2018-07-20T03:10:43.602Z,5.67
2018-07-20T03:12:00.588Z,5.40
2018-07-20T03:13:17.943Z,5.00
2018-07-20T03:14:34.857Z,6.07
2018-07-20T03:15:51.408Z,5.75
2018-07-20T03:17:08.629Z,5.80
2018-07-20T03:18:25.336Z,5.27
2018-07-20T03:19:42.673Z,5.60
2018-07-20T03:20:59.772Z,5.73
2018-07-20T03:22:17.145Z,5.23
2018-07-20T03:23:34.592Z,5.87
2018-07-20T03:24:51.882Z,6.13
2018-07-20T03:26:09.270Z,4.83
2018-07-20T03:27:26.392Z,5.50
2018-07-20T03:28:43.439Z,5.40
2018-07-20T03:30:00.523Z,4.27
2018-07-20T03:31:18.207Z,5.43
2018-07-20T03:32:35.395Z,5.63
2018-07-20T03:33:52.381Z,4.77
2018-07-20T03:35:10.389Z,5.43
2018-07-20T03:36:28.219Z,5.27
2018-07-20T03:37:45.008Z,5.40
2018-07-20T03:39:01.604Z,6.00
2018-07-20T03:40:18.849Z,5.53
2018-07-20T03:41:35.864Z,5.13
2018-07-20T03:42:52.706Z,5.10
2018-07-20T03:44:09.798Z,7.43
2018-07-20T03:45:26.716Z,4.70
2018-07-20T03:46:43.772Z,5.20
2018-07-20T03:48:00.855Z,5.27
2018-07-20T03:49:18.007Z,5.00
2018-07-20T03:50:35.724Z,5.80
2018-07-20T03:51:54.005Z,4.97
2018-07-20T03:53:11.181Z,5.53
2018-07-20T03:54:28.118Z,4.90
2018-07-20T03:55:45.397Z,5.47
2018-07-20T03:57:02.447Z,5.70
2018-07-20T03:58:19.421Z,6.30
2018-07-20T03:59:36.391Z,6.40
2018-07-20T04:00:53.356Z,6.40
2018-07-20T04:02:10.368Z,5.53
2018-07-20T04:03:27.264Z,6.00
2018-07-20T04:04:44.473Z,5.17
2018-07-20T04:06:01.726Z,5.30
2018-07-20T04:07:19.154Z,5.10
2018-07-20T04:08:36.333Z,5.13
2018-07-20T04:09:53.613Z,5.37
2018-07-20T04:11:11.133Z,5.83
2018-07-20T04:12:28.065Z,5.70
2018-07-20T04:13:45.220Z,5.43
2018-07-20T04:15:02.795Z,4.33
2018-07-20T04:16:19.828Z,4.60
2018-07-20T04:17:45.118Z,5.50
2018-07-20T04:19:01.766Z,5.00
2018-07-20T04:20:18.557Z,5.17
2018-07-20T04:21:35.076Z,4.93
2018-07-20T04:22:51.864Z,4.80
2018-07-20T04:24:09.509Z,6.00
2018-07-20T04:25:26.943Z,5.60
2018-07-20T04:26:43.729Z,4.27
2018-07-20T04:28:00.998Z,5.27
2018-07-20T04:29:18.016Z,6.70
2018-07-20T04:30:34.928Z,5.50
2018-07-20T04:31:52.547Z,5.77
2018-07-20T04:33:09.583Z,5.80
2018-07-20T04:34:26.690Z,5.30
2018-07-20T04:35:44.132Z,5.07
2018-07-20T04:37:01.262Z,4.43
2018-07-20T04:38:18.730Z,5.27
2018-07-20T04:39:36.544Z,4.90
2018-07-20T04:40:53.245Z,5.27
2018-07-20T04:42:10.761Z,5.20
2018-07-20T04:43:27.641Z,4.97
2018-07-20T04:44:44.798Z,4.70
2018-07-20T04:46:01.853Z,5.30
2018-07-20T04:47:18.994Z,5.55
2018-07-20T04:48:35.525Z,4.97
2018-07-20T04:49:52.402Z,4.47
2018-07-20T04:51:09.676Z,3.90
2018-07-20T04:52:27.011Z,5.10
2018-07-20T04:53:43.909Z,5.00
2018-07-20T04:55:00.909Z,4.20
2018-07-20T04:56:17.867Z,4.73
2018-07-20T04:57:34.929Z,5.00
2018-07-20T04:58:51.419Z,5.07
2018-07-20T05:00:08.773Z,5.67
2018-07-20T05:01:25.689Z,5.20
2018-07-20T05:02:42.811Z,4.83
2018-07-20T05:03:59.536Z,4.67
2018-07-20T05:05:16.372Z,5.47
2018-07-20T05:06:33.049Z,4.83
2018-07-20T05:07:50.336Z,6.23
2018-07-20T05:09:09.204Z,4.67
2018-07-20T05:10:26.172Z,5.23
2018-07-20T05:11:43.309Z,5.67
2018-07-20T05:13:00.291Z,5.63
2018-07-20T05:14:17.690Z,6.13
2018-07-20T05:15:34.329Z,5.90
2018-07-20T05:16:51.601Z,5.93
2018-07-20T05:18:08.644Z,5.00
2018-07-20T05:19:25.761Z,5.97
2018-07-20T05:20:43.099Z,5.23
2018-07-20T05:21:59.784Z,5.20
2018-07-20T05:23:16.594Z,5.67
2018-07-20T05:24:33.824Z,5.97
2018-07-20T05:25:50.895Z,5.60
2018-07-20T05:27:07.545Z,5.03
2018-07-20T05:28:24.673Z,6.10
2018-07-20T05:29:41.896Z,5.97
2018-07-20T05:30:59.217Z,6.23
2018-07-20T05:32:16.288Z,6.30
2018-07-20T05:33:33.320Z,5.93
2018-07-20T05:34:50.445Z,6.33
2018-07-20T05:36:07.812Z,5.97
2018-07-20T05:37:24.645Z,6.13
2018-07-20T05:38:41.435Z,5.27
2018-07-20T05:39:58.251Z,5.17
2018-07-20T05:41:15.388Z,4.77
2018-07-20T05:42:32.159Z,5.27
2018-07-20T05:43:49.125Z,6.00
2018-07-20T05:45:06.239Z,5.23
2018-07-20T05:46:23.040Z,4.60
2018-07-20T05:47:40.219Z,5.43
2018-07-20T05:48:57.080Z,5.43
2018-07-20T05:50:14.398Z,5.47
2018-07-20T05:51:31.504Z,4.70
2018-07-20T05:52:48.575Z,4.70
2018-07-20T05:54:05.929Z,5.10
2018-07-20T05:55:22.789Z,5.77
2018-07-20T05:56:39.809Z,5.27
2018-07-20T05:57:56.290Z,5.40
2018-07-20T05:59:13.337Z,5.70
2018-07-20T06:00:30.525Z,4.17
2018-07-20T06:01:47.598Z,4.60
2018-07-20T06:03:04.555Z,5.37
2018-07-20T06:04:21.756Z,4.83
2018-07-20T06:05:38.335Z,3.90
2018-07-20T06:06:55.421Z,5.13
2018-07-20T06:08:12.422Z,4.60
2018-07-20T06:09:29.139Z,5.37
2018-07-20T06:10:46.384Z,4.53
2018-07-20T06:12:03.297Z,4.83
2018-07-20T06:13:20.139Z,4.60
2018-07-20T06:14:37.131Z,4.03
2018-07-20T06:15:54.098Z,4.50
2018-07-20T06:17:11.420Z,4.77
2018-07-20T06:18:28.078Z,4.03
2018-07-20T06:19:44.882Z,4.17
2018-07-20T06:21:01.966Z,4.10
2018-07-20T06:22:19.166Z,5.20
2018-07-20T06:23:35.779Z,3.87
2018-07-20T06:24:52.639Z,4.20
2018-07-20T06:26:09.665Z,4.70
2018-07-20T06:27:26.601Z,5.27
2018-07-20T06:28:43.634Z,5.20
2018-07-20T06:30:01.003Z,4.00
2018-07-20T06:31:17.813Z,4.27
2018-07-20T06:32:34.274Z,4.47
2018-07-20T06:33:51.172Z,3.93
2018-07-20T06:35:08.412Z,3.73
2018-07-20T06:36:25.466Z,4.23
2018-07-20T06:37:42.335Z,4.17
2018-07-20T06:38:59.200Z,4.17
2018-07-20T06:40:16.274Z,3.80
2018-07-20T06:41:33.388Z,4.37
2018-07-20T06:42:50.328Z,4.20
2018-07-20T06:44:07.600Z,4.47
2018-07-20T06:45:24.433Z,4.80
2018-07-20T06:46:41.631Z,4.20
2018-07-20T06:47:58.359Z,4.37
2018-07-20T06:49:15.752Z,4.30
2018-07-20T06:50:32.456Z,4.47
2018-07-20T06:51:49.128Z,4.57
2018-07-20T06:53:05.800Z,4.20
2018-07-20T06:54:22.976Z,4.77
2018-07-20T06:55:39.585Z,5.00
2018-07-20T06:56:56.568Z,4.93
2018-07-20T06:58:13.300Z,4.80
2018-07-20T06:59:30.461Z,4.00
2018-07-20T07:00:47.690Z,3.93
2018-07-20T07:02:04.520Z,5.30
2018-07-20T07:03:21.953Z,4.80
2018-07-20T07:04:38.865Z,3.80
2018-07-20T07:05:55.706Z,4.20
2018-07-20T07:07:12.424Z,3.93
2018-07-20T07:08:29.587Z,4.43
2018-07-20T07:09:46.568Z,4.03
2018-07-20T07:11:03.838Z,4.00
2018-07-20T07:12:20.873Z,4.00
2018-07-20T07:13:40.565Z,4.30
2018-07-20T07:14:58.499Z,4.33
2018-07-20T07:16:15.368Z,4.90
2018-07-20T07:17:32.200Z,4.67
2018-07-20T07:18:49.517Z,3.90
2018-07-20T07:20:06.437Z,3.90
2018-07-20T07:21:23.545Z,3.20
2018-07-20T07:22:40.346Z,3.83
2018-07-20T07:23:57.476Z,4.53
2018-07-20T07:25:14.564Z,4.10
2018-07-20T07:26:31.441Z,4.70
2018-07-20T07:27:48.248Z,4.00
2018-07-20T07:29:05.239Z,4.23
2018-07-20T07:30:22.153Z,3.60
2018-07-20T07:31:38.761Z,4.13
2018-07-20T07:32:55.895Z,4.27
2018-07-20T07:34:12.884Z,4.73
2018-07-20T07:35:30.012Z,4.10
2018-07-20T07:36:47.124Z,4.30
2018-07-20T07:38:04.117Z,4.33
2018-07-20T07:39:20.811Z,3.57
2018-07-20T07:40:37.828Z,5.10
2018-07-20T07:41:54.726Z,3.90
2018-07-20T07:43:11.633Z,4.90
2018-07-20T07:44:28.732Z,3.80
2018-07-20T07:45:46.277Z,3.20
2018-07-20T07:47:03.722Z,4.03
2018-07-20T07:48:20.660Z,4.73
2018-07-20T07:49:37.926Z,4.00
2018-07-20T07:50:55.046Z,3.93
2018-07-20T07:52:12.195Z,4.77
2018-07-20T07:53:29.006Z,4.27
2018-07-20T07:54:46.092Z,4.23
2018-07-20T07:56:03.285Z,4.50
2018-07-20T07:57:20.416Z,4.23
2018-07-20T07:58:37.432Z,4.80
2018-07-20T07:59:54.360Z,3.93
2018-07-20T08:01:12.953Z,3.70
2018-07-20T08:02:29.739Z,4.10
2018-07-20T08:03:47.105Z,4.83
2018-07-20T08:05:05.048Z,3.90
2018-07-20T08:06:22.579Z,3.80
2018-07-20T08:07:39.598Z,3.30
2018-07-20T08:08:56.567Z,3.90
2018-07-20T08:10:13.546Z,4.17
2018-07-20T08:11:31.319Z,4.50
2018-07-20T08:12:48.477Z,4.83
2018-07-20T08:14:05.828Z,3.80
2018-07-20T08:15:22.690Z,6.03
2018-07-20T08:16:39.841Z,7.40
2018-07-20T08:17:57.769Z,7.93
2018-07-20T08:19:14.928Z,6.93
2018-07-20T08:20:32.132Z,7.00
2018-07-20T08:21:49.177Z,5.33
2018-07-20T08:23:06.110Z,6.03
2018-07-20T08:24:23.481Z,5.50
2018-07-20T08:25:40.156Z,4.67
2018-07-20T08:26:56.868Z,4.70
2018-07-20T08:28:13.945Z,4.40
2018-07-20T08:29:30.801Z,4.13
2018-07-20T08:30:48.315Z,4.20
2018-07-20T08:32:05.648Z,4.30
2018-07-20T08:33:22.412Z,4.10
2018-07-20T08:34:39.344Z,4.60
2018-07-20T08:35:56.456Z,4.10
2018-07-20T08:37:13.927Z,4.57
2018-07-20T08:38:31.432Z,4.03
2018-07-20T08:39:49.205Z,4.40
2018-07-20T08:41:05.860Z,4.00
2018-07-20T08:42:23.116Z,4.10
2018-07-20T08:43:40.268Z,4.00
2018-07-20T08:44:57.232Z,3.93
2018-07-20T08:46:14.094Z,3.60
2018-07-20T08:47:30.989Z,4.40
2018-07-20T08:48:48.181Z,3.67
2018-07-20T08:50:05.611Z,3.57
2018-07-20T08:51:23.157Z,3.13
2018-07-20T08:52:39.918Z,3.57
2018-07-20T08:53:56.732Z,3.67
2018-07-20T08:55:14.206Z,3.83
2018-07-20T08:56:31.257Z,3.87
2018-07-20T08:57:48.828Z,3.80
2018-07-20T08:59:05.946Z,3.37
2018-07-20T09:00:22.592Z,3.50
2018-07-20T09:01:39.373Z,3.37
2018-07-20T09:02:56.781Z,3.67
2018-07-20T09:04:14.001Z,3.20
2018-07-20T09:05:30.843Z,3.93
2018-07-20T09:06:48.132Z,3.60
2018-07-20T09:08:06.322Z,3.43
2018-07-20T09:09:23.183Z,3.30
2018-07-20T09:12:55.248Z,4.07
2018-07-20T09:14:12.592Z,4.13
2018-07-20T09:15:29.493Z,6.80
2018-07-20T09:16:48.262Z,8.73
2018-07-20T09:18:07.936Z,6.97
2018-07-20T09:19:27.684Z,5.50
2018-07-20T09:20:47.717Z,4.20
2018-07-20T09:22:06.527Z,6.17
2018-07-20T09:23:25.080Z,5.50
2018-07-20T09:24:42.812Z,6.07
2018-07-20T09:25:59.229Z,5.57
2018-07-20T09:27:16.293Z,4.47
2018-07-20T09:28:32.893Z,4.73
2018-07-20T09:29:50.115Z,4.80
2018-07-20T09:31:06.772Z,5.33
2018-07-20T09:32:24.064Z,4.43
2018-07-20T09:33:40.993Z,4.87
2018-07-20T09:34:57.840Z,3.90
2018-07-20T09:36:14.893Z,4.37
2018-07-20T09:37:32.472Z,3.93
2018-07-20T09:38:49.314Z,4.00
2018-07-20T09:40:06.782Z,3.53
2018-07-20T09:41:24.128Z,4.27
2018-07-20T09:42:40.912Z,4.20
2018-07-20T09:43:58.392Z,3.57
2018-07-20T09:45:15.984Z,4.40
2018-07-20T09:46:34.419Z,3.90
2018-07-20T09:47:51.169Z,5.00
2018-07-20T09:49:08.228Z,3.13
2018-07-20T09:50:25.112Z,3.97
2018-07-20T09:51:42.522Z,4.03
2018-07-20T09:52:59.371Z,3.70
2018-07-20T09:54:16.470Z,4.70
2018-07-20T09:55:33.208Z,3.93
2018-07-20T09:56:49.824Z,4.10
2018-07-20T09:58:06.717Z,3.50
2018-07-20T09:59:23.815Z,3.73
2018-07-20T10:00:45.887Z,4.30
2018-07-20T10:02:02.479Z,4.33
2018-07-20T10:03:20.820Z,4.33
2018-07-20T10:04:38.245Z,4.10
2018-07-20T10:05:55.153Z,4.10
2018-07-20T10:07:11.837Z,3.43
2018-07-20T10:08:28.860Z,4.00
2018-07-20T10:09:45.458Z,3.73
2018-07-20T10:11:02.401Z,4.13
2018-07-20T10:12:19.249Z,3.30
2018-07-20T10:13:35.864Z,3.03
2018-07-20T10:14:53.078Z,4.43
2018-07-20T10:16:10.757Z,3.97
2018-07-20T10:17:28.320Z,4.03
2018-07-20T10:18:45.762Z,3.80
2018-07-20T10:20:02.501Z,3.77
2018-07-20T10:21:19.437Z,3.57
2018-07-20T10:22:36.757Z,4.23
2018-07-20T10:23:54.709Z,4.40
2018-07-20T10:25:12.397Z,9.10
2018-07-20T10:26:29.806Z,14.07
2018-07-20T10:27:46.518Z,15.77
2018-07-20T10:29:03.339Z,10.57
2018-07-20T10:30:20.157Z,9.10
2018-07-20T10:31:36.902Z,7.53
2018-07-20T10:32:54.025Z,7.43
2018-07-20T10:34:10.902Z,8.13
2018-07-20T10:35:27.625Z,6.50
2018-07-20T10:36:44.523Z,6.43
2018-07-20T10:38:01.510Z,5.63
2018-07-20T10:39:21.501Z,6.10
2018-07-20T10:40:38.484Z,6.10
2018-07-20T10:41:55.132Z,4.77
2018-07-20T10:43:12.142Z,4.77
2018-07-20T10:44:29.309Z,4.50
2018-07-20T10:45:46.018Z,3.93
2018-07-20T10:47:02.761Z,4.03
2018-07-20T10:48:19.590Z,5.23
2018-07-20T10:49:36.506Z,4.60
2018-07-20T10:50:53.601Z,4.20
2018-07-20T10:52:11.034Z,4.50
2018-07-20T10:53:27.904Z,4.60
2018-07-20T10:54:44.833Z,3.70
2018-07-20T10:56:01.345Z,3.90
2018-07-20T10:57:18.000Z,4.30
2018-07-20T10:58:35.625Z,3.77
2018-07-20T10:59:52.302Z,3.67
2018-07-20T11:01:08.938Z,4.10
2018-07-20T11:02:26.842Z,3.97
2018-07-20T11:03:43.984Z,4.43
2018-07-20T11:05:01.378Z,3.70
2018-07-20T11:06:18.192Z,3.90
2018-07-20T11:07:34.787Z,4.40
2018-07-20T11:08:51.606Z,4.37
2018-07-20T11:10:08.618Z,4.63
2018-07-20T11:11:25.247Z,4.13
2018-07-20T11:12:42.181Z,4.53
2018-07-20T11:15:43.548Z,3.03
2018-07-20T11:17:00.054Z,4.00
2018-07-20T11:18:16.723Z,4.30
2018-07-20T11:19:33.607Z,4.20
2018-07-20T11:20:50.992Z,3.73
2018-07-20T11:22:09.375Z,4.07
2018-07-20T11:23:26.452Z,4.20
2018-07-20T11:24:43.720Z,4.33
2018-07-20T11:26:00.934Z,4.30
2018-07-20T11:27:17.851Z,5.60
2018-07-20T11:28:34.888Z,3.73
2018-07-20T11:29:51.230Z,4.00
2018-07-20T11:31:07.916Z,5.50
2018-07-20T11:32:24.843Z,4.70
2018-07-20T11:33:41.860Z,4.00
2018-07-20T11:34:59.520Z,3.37
2018-07-20T11:36:16.887Z,3.27
2018-07-20T11:37:33.494Z,4.03
2018-07-20T11:38:50.561Z,4.00
2018-07-20T11:40:07.292Z,3.53
2018-07-20T11:41:24.627Z,3.60
2018-07-20T11:42:41.954Z,4.07
2018-07-20T11:43:58.927Z,4.00
2018-07-20T11:45:15.648Z,3.47
2018-07-20T11:46:32.760Z,4.33
2018-07-20T11:47:49.448Z,9.03
2018-07-20T11:49:06.296Z,7.13
2018-07-20T11:50:23.040Z,6.73
2018-07-20T11:51:40.161Z,5.90
2018-07-20T11:52:56.756Z,4.13
2018-07-20T11:54:13.528Z,4.13
2018-07-20T11:55:30.343Z,3.87
2018-07-20T11:56:46.912Z,3.50
2018-07-20T11:58:03.839Z,5.47
2018-07-20T11:59:20.845Z,5.47
2018-07-20T12:00:37.893Z,3.90
2018-07-20T12:01:55.348Z,3.40
2018-07-20T12:03:12.477Z,4.00
2018-07-20T12:04:28.989Z,3.67
2018-07-20T12:05:45.818Z,3.50
2018-07-20T12:07:03.265Z,3.83
2018-07-20T12:08:20.925Z,3.50
2018-07-20T12:09:37.866Z,2.90
2018-07-20T12:10:54.675Z,3.30
2018-07-20T12:12:12.402Z,2.53
2018-07-20T12:13:29.109Z,3.57
2018-07-20T12:14:45.823Z,2.60
2018-07-20T12:16:03.595Z,3.00
2018-07-20T12:17:20.228Z,3.00
2018-07-20T12:18:37.504Z,3.17
2018-07-20T12:19:53.976Z,3.27
2018-07-20T12:21:10.735Z,2.90
2018-07-20T12:22:27.442Z,3.43
2018-07-20T12:23:44.484Z,3.30
2018-07-20T12:25:01.156Z,3.40
2018-07-20T12:26:17.763Z,3.50
2018-07-20T12:27:34.777Z,3.37
2018-07-20T12:28:51.411Z,9.73
2018-07-20T12:30:08.501Z,11.50
2018-07-20T12:31:25.322Z,5.00
2018-07-20T12:32:42.464Z,3.50
2018-07-20T12:33:59.036Z,4.23
2018-07-20T12:35:16.260Z,2.70
2018-07-20T12:36:33.339Z,3.00
2018-07-20T12:37:50.155Z,3.00
2018-07-20T12:39:09.068Z,3.20
2018-07-20T12:40:25.782Z,2.60
2018-07-20T12:41:43.024Z,3.33
2018-07-20T12:43:00.340Z,3.00
2018-07-20T12:44:17.525Z,4.17
2018-07-20T12:45:33.980Z,3.07
2018-07-20T12:46:51.058Z,3.07
2018-07-20T12:48:08.160Z,3.03
2018-07-20T12:49:25.665Z,3.77
2018-07-20T12:50:42.525Z,3.20
2018-07-20T12:51:59.332Z,3.90
2018-07-20T12:53:16.547Z,3.00
2018-07-20T12:54:34.012Z,2.77
2018-07-20T12:55:51.154Z,2.93
2018-07-20T12:57:07.980Z,3.37
2018-07-20T12:58:25.781Z,2.80
2018-07-20T12:59:42.437Z,4.40
2018-07-20T13:00:59.304Z,2.87
2018-07-20T13:02:16.384Z,3.10
2018-07-20T13:03:33.978Z,4.03
2018-07-20T13:04:50.843Z,3.50
2018-07-20T13:06:08.927Z,3.53
2018-07-20T13:07:26.210Z,3.50
2018-07-20T13:08:43.277Z,3.10
2018-07-20T13:10:00.168Z,3.00
2018-07-20T13:11:17.528Z,3.43
2018-07-20T13:12:35.052Z,3.50
2018-07-20T13:13:51.709Z,3.83
2018-07-20T13:15:09.018Z,3.67
2018-07-20T13:16:25.625Z,4.10
2018-07-20T13:17:42.289Z,3.50
2018-07-20T13:18:58.863Z,3.80
2018-07-20T13:20:15.816Z,3.80
2018-07-20T13:21:32.542Z,3.23
2018-07-20T13:22:49.749Z,3.63
2018-07-20T13:24:07.157Z,4.10
2018-07-20T13:25:24.620Z,3.50
2018-07-20T13:26:41.405Z,3.50
2018-07-20T13:27:58.123Z,3.50
2018-07-20T13:29:14.930Z,3.30
2018-07-20T13:30:31.939Z,4.10
2018-07-20T13:31:48.805Z,3.60
2018-07-20T13:33:05.715Z,3.53
2018-07-20T13:34:22.852Z,3.60
2018-07-20T13:35:40.561Z,4.40
2018-07-20T13:36:57.201Z,3.50
2018-07-20T13:38:14.004Z,3.17
2018-07-20T13:39:30.959Z,4.40
2018-07-20T13:40:47.961Z,3.43
2018-07-20T13:42:04.881Z,3.60
2018-07-20T13:43:21.531Z,3.00
2018-07-20T13:44:38.007Z,3.57
2018-07-20T13:45:55.141Z,4.23
2018-07-20T13:47:11.875Z,4.30
2018-07-20T13:48:28.976Z,3.90
2018-07-20T13:49:46.797Z,4.00
2018-07-20T13:51:03.410Z,3.53
2018-07-20T13:52:20.477Z,3.53
2018-07-20T13:53:37.313Z,3.40
2018-07-20T13:54:54.728Z,3.43
2018-07-20T13:56:11.898Z,3.47
2018-07-20T13:57:28.732Z,3.80
2018-07-20T13:58:45.481Z,3.77
2018-07-20T14:00:02.194Z,3.13
2018-07-20T14:01:19.047Z,3.40
2018-07-20T14:02:35.935Z,3.90
2018-07-20T14:03:52.760Z,5.20
2018-07-20T14:05:09.857Z,3.37
2018-07-20T14:06:26.920Z,3.80
2018-07-20T14:07:43.477Z,3.50
2018-07-20T14:09:00.385Z,4.37
2018-07-20T14:10:17.373Z,4.23
2018-07-20T14:11:34.562Z,3.53
2018-07-20T14:12:52.304Z,4.23
2018-07-20T14:14:09.591Z,3.60
2018-07-20T14:15:26.909Z,3.63
2018-07-20T14:16:43.459Z,2.90
2018-07-20T14:18:00.517Z,4.07
2018-07-20T14:19:17.983Z,3.47
2018-07-20T14:20:35.270Z,3.50
2018-07-20T14:21:52.665Z,3.53
2018-07-20T14:23:09.372Z,3.20
2018-07-20T14:24:26.152Z,3.53
2018-07-20T14:25:43.890Z,2.83
2018-07-20T14:27:00.454Z,3.23
2018-07-20T14:28:17.537Z,3.07
2018-07-20T14:29:34.282Z,4.13
2018-07-20T14:30:51.078Z,3.90
2018-07-20T14:32:08.592Z,2.70
2018-07-20T14:33:25.004Z,3.37
2018-07-20T14:34:41.794Z,3.47
2018-07-20T14:35:58.651Z,3.80
2018-07-20T14:37:15.414Z,3.50
2018-07-20T14:38:32.341Z,3.40
2018-07-20T14:39:49.117Z,3.80
2018-07-20T14:41:06.167Z,3.47
2018-07-20T14:42:22.877Z,3.73
2018-07-20T14:43:39.710Z,3.23
2018-07-20T14:44:56.511Z,3.40
2018-07-20T14:46:13.194Z,3.50
2018-07-20T14:47:29.948Z,3.47
2018-07-20T14:48:47.028Z,3.60
2018-07-20T14:50:03.618Z,3.70
2018-07-20T14:51:20.386Z,3.33
2018-07-20T14:52:37.234Z,3.10
2018-07-20T14:53:55.724Z,4.07
2018-07-20T14:55:13.776Z,2.77
2018-07-20T14:56:31.097Z,4.00
2018-07-20T14:57:48.109Z,4.50
2018-07-20T14:59:05.578Z,2.90
2018-07-20T15:00:22.035Z,3.30
2018-07-20T15:01:39.043Z,3.63
2018-07-20T15:02:55.884Z,3.93
2018-07-20T15:04:13.452Z,4.23
2018-07-20T15:05:30.268Z,3.73
2018-07-20T15:06:47.429Z,2.87
2018-07-20T15:08:04.940Z,3.30
2018-07-20T15:09:21.532Z,4.50
2018-07-20T15:10:37.984Z,3.97
2018-07-20T15:11:55.129Z,3.40
2018-07-20T15:13:11.788Z,3.63
2018-07-20T15:14:28.492Z,3.43
2018-07-20T15:15:45.319Z,3.93
2018-07-20T15:17:02.551Z,3.80
2018-07-20T15:18:19.141Z,3.73
2018-07-20T15:19:36.229Z,3.37
2018-07-20T15:20:53.150Z,3.30
2018-07-20T15:22:09.825Z,4.00
2018-07-20T15:23:26.700Z,3.63
2018-07-20T15:24:43.756Z,3.43
2018-07-20T15:26:00.509Z,3.80
2018-07-20T15:27:17.152Z,3.53
2018-07-20T15:28:34.191Z,4.10
2018-07-20T15:29:50.670Z,4.07
2018-07-20T15:31:07.575Z,3.47
2018-07-20T15:32:24.373Z,3.93
2018-07-20T15:33:41.854Z,3.40
2018-07-20T15:34:58.576Z,3.93
2018-07-20T15:36:15.992Z,3.83
2018-07-20T15:37:33.114Z,3.83
2018-07-20T15:38:50.545Z,3.93
2018-07-20T15:40:07.245Z,4.20
2018-07-20T15:41:24.163Z,3.83
2018-07-20T15:42:41.025Z,4.10
2018-07-20T15:43:57.545Z,4.03
2018-07-20T15:45:14.286Z,3.70
2018-07-20T15:46:31.267Z,3.57
2018-07-20T15:47:47.774Z,3.73
2018-07-20T15:49:04.954Z,3.60
2018-07-20T15:50:22.304Z,3.87
2018-07-20T15:53:35.204Z,3.97
2018-07-20T15:53:35.723Z,3.37
2018-07-20T15:54:13.084Z,3.73
2018-07-20T15:55:29.543Z,3.50
2018-07-20T15:56:46.697Z,4.17
2018-07-20T15:58:03.428Z,4.10
2018-07-20T15:59:20.236Z,4.77
2018-07-20T16:00:36.866Z,3.40
2018-07-20T16:01:54.013Z,4.70
2018-07-20T16:03:11.547Z,3.70
2018-07-20T16:04:28.409Z,3.70
2018-07-20T16:05:44.992Z,4.03
2018-07-20T16:07:01.648Z,3.87
2018-07-20T16:08:18.514Z,3.97
2018-07-20T16:09:35.200Z,3.60
2018-07-20T16:10:51.992Z,4.33
2018-07-20T16:12:08.509Z,4.40
2018-07-20T16:13:25.801Z,3.50
2018-07-20T16:14:42.859Z,3.80
2018-07-20T16:15:59.599Z,3.83
2018-07-20T16:17:16.160Z,4.00
2018-07-20T16:18:33.025Z,3.60
2018-07-20T16:19:49.996Z,4.13
2018-07-20T16:21:07.139Z,4.23
2018-07-20T16:22:24.473Z,3.93
2018-07-20T16:23:41.663Z,4.23
2018-07-20T16:24:58.545Z,3.97
2018-07-20T16:26:15.369Z,4.10
2018-07-20T16:27:32.940Z,5.50
2018-07-20T16:28:50.056Z,4.83
2018-07-20T16:30:07.064Z,4.00
2018-07-20T16:31:23.652Z,4.33
2018-07-20T16:32:40.390Z,4.20
2018-07-20T16:33:57.256Z,5.00
2018-07-20T16:35:14.059Z,5.03
2018-07-20T16:36:30.917Z,7.97
2018-07-20T16:37:48.037Z,5.83
2018-07-20T16:39:07.445Z,6.83
2018-07-20T16:40:24.483Z,7.90
2018-07-20T16:41:41.235Z,5.70
2018-07-20T16:42:58.085Z,7.33
2018-07-20T16:44:14.945Z,8.30
2018-07-20T16:45:32.204Z,6.17
2018-07-20T16:46:49.548Z,6.30
2018-07-20T16:48:06.318Z,6.10
2018-07-20T16:49:23.101Z,6.60
2018-07-20T16:50:40.119Z,4.90
2018-07-20T16:51:57.565Z,6.03
2018-07-20T16:53:14.374Z,5.33
2018-07-20T16:54:31.446Z,4.37
2018-07-20T16:55:48.096Z,4.27
2018-07-20T16:57:05.127Z,5.30
2018-07-20T16:58:21.919Z,6.60
2018-07-20T16:59:38.869Z,5.73
2018-07-20T17:00:55.539Z,4.80
2018-07-20T17:02:12.681Z,5.60
2018-07-20T17:03:30.064Z,6.50
2018-07-20T17:04:46.817Z,4.67
2018-07-20T17:06:03.885Z,4.40
2018-07-20T17:07:20.518Z,4.23
2018-07-20T17:08:37.432Z,4.40
2018-07-20T17:09:54.271Z,6.00